Little Deer Isle, ME (04650)

3:54 AM EDT on May 26, 2017 (GMT -0400)
Deer Isle (Lily Pond) | | Change Station

Elev 100 ft 44.24 °N, 68.67 °W | Updated 14 seconds ago

Rain
Rain
47.1 °F
Feels Like 47 °F
N
0.0
Wind Variable Wind from WNW
Gusts 0.0 mph

Today
High -- | Low -- °F
--% Chance of Precip.
Yesterday
High -- | Low -- °F
Precip. -- in
Pressure 29.68 in
Visibility 6.0 miles
Clouds Overcast 700 ft
Windchill 47 °F
Dew Point 47 °F
Humidity 99%
Rainfall 0.05 in
Snow Depth Not available.
4:57 AM 8:06 PM
New Moon, 0% visible
SPECI KBHB 260746Z AUTO 06012G19KT 6SM -RA BR OVC007 08/08 A2968 RMK AO2 P0001
Pressure 29.68 in
Visibility 6.0 miles
Clouds Overcast 700 ft
Windchill 47 °F
Dew Point 47 °F
Humidity 99%
Rainfall 0.05 in
Snow Depth Not available.
4:57 AM 8:06 PM
New Moon, 0% visible
SPECI KBHB 260746Z AUTO 06012G19KT 6SM -RA BR OVC007 08/08 A2968 RMK AO2 P0001

Get Severe Weather Alerts

Thanks for signing up!

Be on the lookout for a verification email in your inbox.

You'll start receiving the daily forecast at 6 AM.

×

10-Day Weather Forecast

Almanac

Astronomy

May. 26, 2017 Rise Set
Actual Time
Civil Twilight
Nautical Twilight
Astronomical Twilight
Moon
Length of Visible Light
Length of Day
Tomorrow will be .
, % of the Moon is Illuminated

Today's Extremes

State Highs State Lows

Community

WunderPhotos

Category 6

Welcome to Category 6. This is the collective home for Weather Underground's featured writeups by Dr. Jeff Masters (right), Bob Henson (left), Chris Burt, and other regular contributors.

Nearby

Air Quality

  Air Quality AQ Index Pollutant
Not available.

Snow Depth

Station Depth Elevation

Earthquake Activity

City Distance Mag. Time & Date
Minimum magnitude displayed is 2.5.

Coastal Water Temperatures

Place Temperature

Stations

Nearby Weather Stations

Station Location Temp. Windchill Dew Point Humidity Wind Precip. Elev Updated Type
                   

Watches & Warnings

There are currently no watches in effect.